x

Prince Edward Pt (45135) Wave Buoy

1:00pm - Mon 29th Aug 2016 All times are CDT. -5 hours from GMT.

  • Sig Wave height 0.7ft
  • Peak Period 3s
  • Wind
    4mph, 7mph gusts
  • Sea Temp 76°f
  • Air Temp 72°f
  • Sea Pressure 1024mb
  • Prince Edward Pt
  • Prince Edward Pt

More Historic Weather Station data

Upgrade to MSW Pro to gain access to the past 30 days of data for over 8000 Wavebouys and Weather Stations around the globe.

Join Pro

Comparision Forecast

View Surf forecast
   
Mon 08/29 1:00pm 0.7ft 3s 4 7 mph 1024mb 76f 72f
12:00pm 1ft 3s 2 4 mph 1024mb 75f 71f
11:00am 1ft 3s 7 9 mph 1024mb 75f 70f
10:00am 1.3ft 4s 9 11 mph 1024mb 75f 69f
9:00am 1ft 4s 9 13 mph 1024mb 75f 69f
8:00am 1ft 4s 9 11 mph 1023.5mb 75f 70f
7:00am 1ft 4s 9 11 mph 1023.2mb 74f 69f
6:00am 1.3ft 4s 9 11 mph 1022.6mb 75f 69f
5:00am 1.6ft 4s 11 13 mph 1021.9mb 75f 69f
4:00am 1.3ft 4s 13 16 mph 1021.4mb 75f 70f
3:00am 1.3ft 4s 11 13 mph 1021.2mb 75f 70f
2:00am 1.3ft 4s 9 13 mph 1020.9mb 75f 71f
1:00am 1.6ft 4s 9 13 mph 1020.6mb 75f 71f
12:00am 1.6ft 4s 11 13 mph 1020.7mb 75f 73f
Sun 08/28 11:00pm 1.6ft 4s 16 18 mph 1020.3mb 75f 74f
10:00pm 1.6ft 4s 13 16 mph 1019.7mb 75f 76f
9:00pm 1.6ft 4s 13
mph
1019.1mb 75f 76f
8:00pm 1.6ft 4s 11 13 mph 1018.6mb 76f 76f
7:00pm 1.3ft 4s 11 13 mph 1018.3mb 76f 76f
6:00pm 1.3ft 4s 13 18 mph 1017.7mb 76f 77f
5:00pm 1ft 4s 11 16 mph 1018.1mb 76f 77f
4:00pm 1ft 3s 7 9 mph 1018.7mb 76f 76f
3:00pm 1.3ft 3s 9 11 mph 1018.9mb 76f 76f
2:00pm 1.3ft 3s 11 13 mph 1019.5mb 75f 75f
1:00pm 1.3ft 3s 13
mph
1019.9mb 75f 75f
12:00pm 1.3ft 4s 13 16 mph 1019.9mb 75f 76f
11:00am 1.3ft 4s 13 16 mph 1019.9mb 75f 76f
10:00am 1.6ft 4s 13 16 mph 1020.1mb 75f 75f
9:00am 2ft 4s 18
mph
1020.1mb 75f 74f
8:00am 1.6ft 4s 18 20 mph 1020mb 75f 74f
7:00am 1.6ft 3s 16 18 mph 1020.4mb 75f 74f
6:00am 1.6ft 3s 13 18 mph 1020.5mb 75f 74f
5:00am 1.3ft 3s 13 16 mph 1020.2mb 75f 74f
4:00am 1ft 3s 13 16 mph 1019.8mb 75f 74f
3:00am 1ft 3s 11 13 mph 1019.7mb 75f 74f
2:00am 0.7ft 2s 11 13 mph 1019.9mb 75f 74f
1:00am 0.7ft 2s 9 11 mph 1020.2mb 75f 74f
12:00am 0.7ft 2s 9 11 mph 1021mb 75f 75f
Sat 08/27 11:00pm 0.3ft 2s 9 11 mph 1021.2mb 75f 75f
10:00pm 0.3ft 2s 9 11 mph 1021.2mb 75f 75f
9:00pm 0.3ft 3s 9 11 mph 1021.8mb 75f 74f
8:00pm 0.3ft 4s 7 9 mph 1022.3mb 75f 73f
7:00pm 0.3ft 3s 4
mph
1022.1mb 76f 73f
6:00pm 0.3ft 2s 2
mph
1022.1mb 76f 73f
5:00pm 0.3ft 3s  -  2 mph 1021.7mb 76f 73f
4:00pm 0.3ft 3s  -  2 mph 1021.5mb 76f 73f
3:00pm 0.3ft 3s 2
mph
1022mb 76f 73f
2:00pm 0.3ft 3s 2 4 mph 1022.2mb 76f 71f
1:00pm 0.7ft 3s 4 7 mph 1022.8mb 76f 71f
12:00pm 0.7ft 3s 4 7 mph 1022.8mb 76f 70f
11:00am 0.7ft 3s 7
mph
1023mb 75f 70f
10:00am 0.7ft 3s 4
mph
1023.2mb 75f 69f
9:00am 0.7ft 3s 2 4 mph 1023.1mb 75f 68f
8:00am 1ft 3s 7 9 mph 1022.8mb 74f 67f
7:00am 1ft 3s 7 9 mph 1022.6mb 74f 67f
6:00am 1ft 3s 9 11 mph 1022.4mb 74f 68f
5:00am 1ft 3s 11 13 mph 1021.9mb 74f 69f
4:00am 1ft 3s 13 16 mph 1021.5mb 74f 70f
3:00am 0.7ft 4s 13 16 mph 1021mb 74f 71f
2:00am 0.7ft 4s 9 11 mph 1020.7mb 74f 72f
1:00am 0.7ft 4s 9 11 mph 1020.7mb 74f 73f
12:00am 0.7ft 3s 9 11 mph 1020.6mb 74f 74f
Fri 08/26 11:00pm 0.7ft 4s 9 13 mph 1020mb 75f 75f
10:00pm 1ft 4s 7 9 mph 1019.2mb 75f 75f
9:00pm 1ft 4s 7
mph
1018.9mb 75f 75f
8:00pm 1.3ft 4s 7 9 mph 1018.6mb 75f 75f
7:00pm 1.3ft 4s 11 13 mph 1018mb 75f 75f
6:00pm 1ft 3s 11 13 mph 1017.8mb 75f 75f
5:00pm 1ft 3s 9 11 mph 1017.8mb 76f 75f
4:00pm 1.3ft 4s 11 13 mph 1017.6mb 75f 75f
3:00pm 1.3ft 4s 11 13 mph 1017.7mb 75f 74f
2:00pm 1.6ft 3s 11 13 mph 1017.8mb 75f 73f
1:00pm  -   -  13
mph
1018.1mb - 73f
12:00pm 1.3ft 4s 16 18 mph 1018.1mb 75f 73f
11:00am 1ft 3s 13 16 mph 1018.1mb 75f 73f
10:00am 1ft 4s 11 13 mph 1017.9mb 75f 73f
9:00am 1ft 3s 9 11 mph 1017.6mb 75f 73f
8:00am 1ft 4s 9 11 mph 1017.1mb 74f 73f
7:00am 1.3ft 4s 13 16 mph 1016.5mb 74f 72f
6:00am 1.3ft 4s 13 16 mph 1015.9mb 74f 72f
5:00am 1.3ft 3s 13
mph
1015.1mb 74f 73f
4:00am 1.3ft 4s 13
mph
1014.1mb 74f 74f
3:00am 1.3ft 3s 13 16 mph 1013.2mb 74f 73f
2:00am 1.6ft 4s 13 18 mph 1012.7mb 74f 73f
1:00am 1.6ft 4s 16 18 mph 1012.4mb 74f 73f
12:00am 1.3ft 4s 13 18 mph 1012.4mb 74f 74f
Thu 08/25 11:00pm 1.3ft 4s 9 11 mph 1012.6mb 74f 74f
10:00pm 1ft 3s 9 11 mph 1012.6mb 74f 74f
9:00pm 1ft 3s 9 11 mph 1012.5mb 74f 74f
8:00pm 0.7ft 3s 13 16 mph 1013.2mb 74f 75f